EGJJ Airport Information

Runway Information
Runway 09 Length 5597 ft width 151 ft
Elevation 270 ft Threshold 200 ft Heading 83
Runway 27 Length 5597 ft Width 151 ft
Elevation 271 ft Threshold 299 ft Heading 263
Airport Frequencies
Type APP Name APP Frequency 120.3 MHZ
Type ATIS Name INFO Frequency 112.2 MHZ
Type GND Name GND Frequency 121.9 MHZ
Type RDR Name RDR Frequency 118.55 MHZ
Type TWR Name TWR Frequency 119.45 MHZ
Airport Navaids
Type VOR-DME Name Jersey Frequency 112200 KHZ
Airport Weather Information & NOTAM
ADDS - METARS form results

(0640 UTC 29 September 2020)
Data provider http://aviationweather.gov/metar/data/
 
METAR text: EGJJ 290620Z 27010KT 9999 SCT009 15/13 Q1017
Conditions at: EGJJ (JERSEY AIRPORT , GB) observed 0620 UTC 29 September 2020
Temperature: 15.0°C (59°F)
Dewpoint: 13.0°C (55°F) [RH = 88%]
Pressure (altimeter): 30.03 inches Hg (1017.0 mb)
Winds: from the W (270 degrees) at 12 MPH (10 knots; 5.1 m/s)
Visibility: 6 or more miles (10+ km)
Ceiling: at least 12,000 feet AGL
Clouds: scattered clouds at 900 feet AGL
Weather: no significant weather observed at this time

METAR text: EGJJ 290550Z 27009KT 9999 FEW008 SCT010 15/14 Q1017
Conditions at: EGJJ (JERSEY AIRPORT , GB) observed 0550 UTC 29 September 2020
Temperature: 15.0°C (59°F)
Dewpoint: 14.0°C (57°F) [RH = 94%]
Pressure (altimeter): 30.03 inches Hg (1017.0 mb)
Winds: from the W (270 degrees) at 10 MPH (9 knots; 4.6 m/s)
Visibility: 6 or more miles (10+ km)
Ceiling: at least 12,000 feet AGL
Clouds: few clouds at 800 feet AGL
scattered clouds at 1000 feet AGL
Weather: no significant weather observed at this time

Forecast for: EGJJ (JERSEY AIRPORT , GB)
Text: TAF EGJJ 290457Z 2906/2915 29009KT 9999 SCT009 BKN014
Forecast period: 0600 to 1500 UTC 29 September 2020
Forecast type: FROM: standard forecast or significant change
Winds: from the WNW (290 degrees) at 10 MPH (9 knots; 4.6 m/s)
Visibility: 6 or more miles (10+ km)
Ceiling: 1400 feet AGL
Clouds: scattered clouds at 900 feet AGL
broken clouds at 1400 feet AGL
Weather: no significant weather forecast for this period
Text: BECMG 2906/2909 SCT018
Forecast period: 0600 to 1500 UTC 29 September 2020
Forecast type: BECOMING: Conditions expected to become as follows by 0900 UTC 29 September 2020
Winds: from the WNW (290 degrees) at 10 MPH (9 knots; 4.6 m/s)
Visibility: 6 or more miles (10+ km)
Ceiling: at least 12,000 feet AGL
Clouds: scattered clouds at 1800 feet AGL
Weather: no significant weather forecast for this period
Text: PROB30
Forecast period: 0600 to 0800 UTC 29 September 2020
Forecast type: TEMPORARY: The following changes expected for less than half the time period
Visibility: 6 miles (9 km)
Ceiling: 900 feet AGL
Clouds: broken clouds at 900 feet AGL
Weather: -RA  (light rain)